createdAt,value
2024-02-29T00:08:54.809Z,52.46
2024-02-29T00:09:24.975Z,50.47
2024-02-29T00:10:24.972Z,50.87
2024-02-29T00:11:24.985Z,49.48
2024-02-29T00:12:25.001Z,51.73
2024-02-29T00:13:24.967Z,50.49
2024-02-29T00:14:24.983Z,46.77
2024-02-29T00:15:24.976Z,47.32
2024-02-29T00:16:24.978Z,54.11
2024-02-29T00:17:25.003Z,52.72
2024-02-29T00:18:24.995Z,53.07
2024-02-29T00:19:24.992Z,52.21
2024-02-29T00:20:24.980Z,50.14
2024-02-29T00:21:24.975Z,52.77
2024-02-29T00:22:25.038Z,51.69
2024-02-29T00:23:25.020Z,50.92
2024-02-29T00:24:25.002Z,49.79
2024-02-29T00:25:24.996Z,52.65
2024-02-29T00:29:03.687Z,49.90
2024-02-29T00:29:33.694Z,51.90
2024-02-29T00:30:33.727Z,52.67
2024-02-29T00:31:33.684Z,51.76
2024-02-29T00:32:33.705Z,50.93
2024-02-29T00:33:33.762Z,51.75
2024-02-29T00:34:33.710Z,51.17
2024-02-29T00:35:33.702Z,53.45
2024-02-29T00:36:33.702Z,51.01
2024-02-29T00:37:33.720Z,51.09
2024-02-29T00:39:06.237Z,52.32
2024-02-29T00:39:34.747Z,49.69
2024-02-29T00:40:33.704Z,50.11
2024-02-29T00:41:33.709Z,50.22
2024-02-29T00:42:33.735Z,48.98
2024-02-29T00:48:18.097Z,50.53
2024-02-29T00:48:51.121Z,53.57
2024-02-29T00:49:51.078Z,51.37
2024-02-29T00:50:51.091Z,53.96
2024-02-29T00:51:51.148Z,54.59
2024-02-29T00:52:51.101Z,51.78
2024-02-29T00:53:51.104Z,51.47
2024-02-29T00:54:51.158Z,50.88
2024-02-29T00:55:51.088Z,53.31
2024-02-29T00:56:51.101Z,53.79
2024-02-29T00:57:51.139Z,49.76
2024-02-29T00:58:51.114Z,51.51
2024-02-29T00:59:51.098Z,51.92
2024-02-29T01:00:51.189Z,51.74
2024-02-29T01:01:51.260Z,50.29
2024-02-29T01:02:51.146Z,49.74
2024-02-29T01:03:51.218Z,49.92
2024-02-29T01:04:51.121Z,49.67
2024-02-29T01:05:51.110Z,49.66
2024-02-29T01:07:18.150Z,50.28
2024-02-29T01:07:51.123Z,51.18
2024-02-29T01:08:51.163Z,50.61
2024-02-29T01:09:51.181Z,50.60
2024-02-29T01:11:18.212Z,54.44
2024-02-29T01:11:51.137Z,51.97
2024-02-29T01:12:51.156Z,49.90
2024-02-29T01:13:51.123Z,51.22
2024-02-29T01:14:51.166Z,48.57
2024-02-29T01:15:51.135Z,52.33
2024-02-29T01:16:51.132Z,50.10
2024-02-29T01:17:51.787Z,49.62
2024-02-29T01:23:38.546Z,49.90
2024-02-29T01:24:08.542Z,51.11
2024-02-29T01:25:08.550Z,50.26
2024-02-29T01:26:08.533Z,52.45
2024-02-29T01:27:08.563Z,53.06
2024-02-29T01:28:08.607Z,52.45
2024-02-29T01:29:08.523Z,51.97
2024-02-29T01:30:08.560Z,51.00
2024-02-29T01:31:08.553Z,54.75
2024-02-29T01:32:15.862Z,53.48
2024-02-29T01:34:58.051Z,53.53
2024-02-29T01:35:08.550Z,53.64
2024-02-29T01:36:09.191Z,54.96
2024-02-29T01:42:59.896Z,52.36
2024-02-29T01:43:30.537Z,52.51
2024-02-29T01:44:30.617Z,51.52
2024-02-29T01:48:06.319Z,50.96
2024-02-29T01:48:39.274Z,52.85
2024-02-29T01:50:03.757Z,51.81
2024-02-29T01:50:39.269Z,51.40
2024-02-29T01:51:39.288Z,54.36
2024-02-29T01:58:30.511Z,50.76
2024-02-29T01:59:01.155Z,56.39
2024-02-29T02:00:01.194Z,52.01
2024-02-29T02:01:01.307Z,53.31
2024-02-29T02:02:01.329Z,55.18
2024-02-29T02:03:01.274Z,54.62
2024-02-29T02:04:06.381Z,54.63
2024-02-29T02:05:01.322Z,54.36
2024-02-29T02:06:01.345Z,52.95
2024-02-29T02:07:01.374Z,54.56
2024-02-29T02:08:01.324Z,55.08
2024-02-29T02:09:32.709Z,52.31
2024-02-29T02:10:01.410Z,52.47
2024-02-29T02:11:01.406Z,52.43
2024-02-29T02:12:01.345Z,51.51
2024-02-29T02:13:01.411Z,53.70
2024-02-29T02:14:01.355Z,55.72
2024-02-29T02:15:01.346Z,56.03
2024-02-29T02:16:01.481Z,51.77
2024-02-29T02:17:01.358Z,53.60
2024-02-29T02:18:01.407Z,53.58
2024-02-29T02:19:01.395Z,53.58
2024-02-29T02:20:01.552Z,53.22
2024-02-29T02:21:01.366Z,52.11
2024-02-29T02:22:01.366Z,54.82
2024-02-29T02:23:01.348Z,57.44
2024-02-29T02:24:06.384Z,54.25
2024-02-29T02:25:01.405Z,55.13
2024-02-29T02:26:01.357Z,51.49
2024-02-29T02:27:01.376Z,55.71
2024-02-29T02:28:01.375Z,52.65
2024-02-29T02:29:06.376Z,52.24
2024-02-29T02:30:01.357Z,48.99
2024-02-29T02:36:50.183Z,54.47
2024-02-29T02:37:23.104Z,54.98
2024-02-29T02:38:23.115Z,57.47
2024-02-29T02:39:23.744Z,56.19
2024-02-29T02:40:23.113Z,57.01
2024-02-29T02:41:23.105Z,60.31
2024-02-29T02:42:23.121Z,58.19
2024-02-29T02:43:23.101Z,58.12
2024-02-29T02:44:28.894Z,60.24
2024-02-29T02:45:23.104Z,57.59
2024-02-29T02:46:23.114Z,57.25
2024-02-29T02:47:23.146Z,55.67
2024-02-29T02:48:23.120Z,59.66
2024-02-29T02:49:23.113Z,58.86
2024-02-29T02:50:23.200Z,57.98
2024-02-29T02:51:23.120Z,57.05
2024-02-29T02:52:23.163Z,58.64
2024-02-29T02:53:23.116Z,56.62
2024-02-29T02:59:07.534Z,56.59
2024-02-29T02:59:40.611Z,57.26
2024-02-29T03:00:40.657Z,57.22
2024-02-29T03:01:40.818Z,58.69
2024-02-29T03:02:40.588Z,59.36
2024-02-29T03:03:40.543Z,56.98
2024-02-29T03:05:07.857Z,60.22
2024-02-29T03:05:40.510Z,56.36
2024-02-29T03:07:07.691Z,58.83
2024-02-29T03:07:40.618Z,60.32
2024-02-29T03:08:40.515Z,59.34
2024-02-29T03:17:41.996Z,59.10
2024-02-29T03:18:10.978Z,58.18
2024-02-29T03:19:10.981Z,58.75
2024-02-29T03:20:10.957Z,60.20
2024-02-29T03:21:10.982Z,57.43
2024-02-29T03:22:11.055Z,59.45
2024-02-29T03:23:10.956Z,58.05
2024-02-29T03:24:10.972Z,58.46
2024-02-29T03:25:11.063Z,58.19
2024-02-29T03:26:10.988Z,58.38
2024-02-29T03:27:11.058Z,57.73
2024-02-29T03:28:10.969Z,56.98
2024-02-29T03:29:10.962Z,59.48
2024-02-29T03:30:10.962Z,59.94
2024-02-29T03:31:11.060Z,57.14
2024-02-29T03:32:10.991Z,59.03
2024-02-29T03:33:11.038Z,58.47
2024-02-29T03:34:10.982Z,58.01
2024-02-29T03:50:39.025Z,58.02
2024-02-29T03:51:11.878Z,59.90
2024-02-29T04:30:11.028Z,59.53
2024-02-29T04:30:44.093Z,59.79
2024-02-29T04:31:43.992Z,58.00
2024-02-29T04:32:44.010Z,58.48
2024-02-29T04:33:44.027Z,55.55
2024-02-29T04:49:12.632Z,55.68
2024-02-29T04:49:40.507Z,59.26
2024-02-29T04:50:40.517Z,58.32
2024-02-29T04:51:40.548Z,58.88
2024-02-29T04:52:40.592Z,55.85
2024-02-29T04:53:40.545Z,57.78
2024-02-29T04:54:40.546Z,58.17
2024-02-29T04:55:40.524Z,55.74
2024-02-29T04:56:40.513Z,56.93
2024-02-29T04:57:40.661Z,60.64
2024-02-29T04:58:40.671Z,59.07
2024-02-29T04:59:40.675Z,59.66
2024-02-29T05:00:40.793Z,60.17
2024-02-29T05:01:40.936Z,62.61
2024-02-29T05:02:40.763Z,62.08
2024-02-29T05:03:40.954Z,57.83
2024-02-29T05:04:40.972Z,56.09
2024-02-29T05:05:40.893Z,58.38
2024-02-29T05:06:40.927Z,58.32
2024-02-29T05:07:40.958Z,64.43
2024-02-29T05:08:41.014Z,64.91
2024-02-29T05:13:23.575Z,61.26
2024-02-29T05:13:54.247Z,59.70
2024-02-29T05:14:54.232Z,62.05
2024-02-29T05:15:54.317Z,59.56
2024-02-29T05:20:37.194Z,59.37
2024-02-29T05:21:07.385Z,53.69
2024-02-29T05:22:07.449Z,58.79
2024-02-29T05:23:07.373Z,58.49
2024-02-29T05:24:07.374Z,55.63
2024-02-29T05:25:07.415Z,54.67
2024-02-29T05:26:07.375Z,56.31
2024-02-29T05:27:07.381Z,62.07
2024-02-29T05:28:07.452Z,58.84
2024-02-29T05:29:07.434Z,61.92
2024-02-29T05:30:07.386Z,60.07
2024-02-29T05:31:07.399Z,61.59
2024-02-29T05:32:07.386Z,59.54
2024-02-29T05:33:07.477Z,59.61
2024-02-29T05:34:07.400Z,58.78
2024-02-29T05:35:07.399Z,61.40
2024-02-29T05:36:07.400Z,59.82
2024-02-29T05:37:07.414Z,60.66
2024-02-29T05:38:07.395Z,58.53
2024-02-29T05:54:38.603Z,60.30
2024-02-29T05:55:08.315Z,61.50
2024-02-29T05:56:08.260Z,58.16
2024-02-29T05:57:08.270Z,61.12
2024-02-29T05:58:08.314Z,60.91
2024-02-29T05:59:08.276Z,59.89
2024-02-29T06:00:08.265Z,57.92
2024-02-29T06:01:08.366Z,60.14
2024-02-29T06:02:08.338Z,59.20
2024-02-29T06:03:08.271Z,59.77
2024-02-29T06:04:08.336Z,60.24
2024-02-29T06:05:08.284Z,66.22
2024-02-29T06:06:08.284Z,61.01
2024-02-29T06:07:08.303Z,60.78
2024-02-29T06:08:08.341Z,63.50
2024-02-29T06:09:08.284Z,63.37
2024-02-29T06:10:08.412Z,59.83
2024-02-29T06:11:08.300Z,60.04
2024-02-29T06:12:08.276Z,60.60
2024-02-29T06:13:08.285Z,60.58
2024-02-29T06:14:08.283Z,60.78
2024-02-29T06:15:11.086Z,58.70
2024-02-29T06:16:08.350Z,60.61
2024-02-29T06:17:08.303Z,61.06
2024-02-29T06:18:08.405Z,54.62
2024-02-29T06:19:08.381Z,55.99
2024-02-29T06:20:08.296Z,49.93
2024-02-29T06:21:08.305Z,50.27
2024-02-29T06:22:08.370Z,51.42
2024-02-29T06:40:50.907Z,60.96
2024-02-29T06:41:17.865Z,63.79
2024-02-29T06:42:17.837Z,62.31
2024-02-29T06:43:17.966Z,60.37
2024-02-29T06:44:17.879Z,58.36
2024-02-29T06:45:18.030Z,60.50
2024-02-29T06:46:17.889Z,58.65
2024-02-29T06:47:17.900Z,58.14
2024-02-29T06:48:17.879Z,58.88
2024-02-29T06:49:17.966Z,57.67
2024-02-29T06:50:17.856Z,58.63
2024-02-29T06:51:17.861Z,58.32
2024-02-29T06:52:17.894Z,59.88
2024-02-29T06:53:18.065Z,58.34
2024-02-29T06:54:17.860Z,57.70
2024-02-29T06:55:17.958Z,61.71
2024-02-29T06:56:17.859Z,59.31
2024-02-29T06:57:17.858Z,55.85
2024-02-29T06:58:17.883Z,58.37
2024-02-29T06:59:17.864Z,59.88
2024-02-29T07:00:17.861Z,58.93
2024-02-29T07:01:17.913Z,58.17
2024-02-29T07:02:17.869Z,54.47
2024-02-29T07:03:17.885Z,57.31
2024-02-29T07:04:17.957Z,54.63
2024-02-29T07:05:17.898Z,55.08
2024-02-29T07:06:17.866Z,58.14
2024-02-29T07:07:17.995Z,63.50
2024-02-29T07:08:17.896Z,62.84
2024-02-29T07:09:17.889Z,65.59
2024-02-29T07:10:18.031Z,60.54
2024-02-29T07:11:17.903Z,57.82
2024-02-29T07:12:17.897Z,57.31
2024-02-29T07:13:17.985Z,61.89
2024-02-29T07:14:17.885Z,61.93
2024-02-29T07:15:17.935Z,56.39
2024-02-29T07:16:17.918Z,58.86
2024-02-29T07:17:17.894Z,57.95
2024-02-29T07:18:17.957Z,58.55
2024-02-29T07:19:18.012Z,59.06
2024-02-29T07:20:17.892Z,61.92
2024-02-29T07:21:17.903Z,57.72
2024-02-29T07:22:17.966Z,57.41
2024-02-29T07:23:17.904Z,60.79
2024-02-29T07:24:17.895Z,56.40
2024-02-29T07:25:17.975Z,58.77
2024-02-29T07:26:17.898Z,60.49
2024-02-29T07:36:15.209Z,61.81
2024-02-29T07:36:52.712Z,62.85
2024-02-29T07:50:15.528Z,61.67
2024-02-29T07:50:52.506Z,60.34
2024-02-29T07:54:21.951Z,59.72
2024-02-29T07:54:59.136Z,58.82
2024-02-29T07:55:59.144Z,57.15
2024-02-29T07:56:59.118Z,56.47
2024-02-29T07:57:59.182Z,55.71
2024-02-29T08:01:34.929Z,56.13
2024-02-29T08:02:07.969Z,53.21
2024-02-29T08:03:07.850Z,55.81
2024-02-29T08:04:07.862Z,53.85
2024-02-29T08:05:07.895Z,56.74
2024-02-29T08:06:07.846Z,55.93
2024-02-29T08:07:07.838Z,57.69
2024-02-29T08:08:07.839Z,57.43
2024-02-29T08:09:10.378Z,56.88
2024-02-29T08:10:08.075Z,56.81
2024-02-29T08:11:07.835Z,56.84
2024-02-29T08:12:07.876Z,56.37
2024-02-29T08:13:07.911Z,56.78
2024-02-29T08:14:07.846Z,53.67
2024-02-29T08:15:07.853Z,54.05
2024-02-29T08:16:07.939Z,54.85
2024-02-29T08:17:07.870Z,55.86
2024-02-29T08:18:34.563Z,53.49
2024-02-29T08:22:47.910Z,52.94
2024-02-29T08:23:20.903Z,52.76
2024-02-29T08:24:20.895Z,52.67
2024-02-29T08:25:21.076Z,53.02
2024-02-29T08:26:20.884Z,54.87
2024-02-29T08:27:20.920Z,54.86
2024-02-29T08:28:20.957Z,56.68
2024-02-29T08:29:20.897Z,52.55
2024-02-29T08:34:00.383Z,50.93
2024-02-29T08:34:36.171Z,52.46
2024-02-29T08:36:01.241Z,51.85
2024-02-29T08:36:36.190Z,54.56
2024-02-29T08:40:19.899Z,54.62
2024-02-29T08:42:27.957Z,52.20
2024-02-29T08:43:22.895Z,51.67
2024-02-29T08:44:00.140Z,53.44
2024-02-29T08:45:00.185Z,55.48
2024-02-29T08:46:00.212Z,52.91
2024-02-29T08:54:54.422Z,53.76
2024-02-29T08:55:30.651Z,51.98
2024-02-29T08:56:30.584Z,55.31
2024-02-29T08:57:30.662Z,51.41
2024-02-29T08:58:30.624Z,52.24
2024-02-29T08:59:30.586Z,53.46
2024-02-29T09:00:30.585Z,51.80
2024-02-29T09:01:30.656Z,51.06
2024-02-29T09:02:30.597Z,48.60
2024-02-29T09:03:30.642Z,50.14
2024-02-29T09:04:30.598Z,50.50
2024-02-29T09:05:30.581Z,52.88
2024-02-29T09:06:36.236Z,49.70
2024-02-29T09:07:31.668Z,51.18
2024-02-29T09:08:30.586Z,50.03
2024-02-29T09:20:41.889Z,44.61
2024-02-29T09:21:14.754Z,47.17
2024-02-29T09:22:14.847Z,47.59
2024-02-29T09:23:14.752Z,48.68
2024-02-29T09:24:16.093Z,45.67
2024-02-29T09:25:14.848Z,42.16
2024-02-29T09:26:14.873Z,42.39
2024-02-29T09:27:14.750Z,46.12
2024-02-29T09:28:14.905Z,44.88
2024-02-29T09:29:14.800Z,43.86
2024-02-29T09:30:14.766Z,43.54
2024-02-29T09:31:14.874Z,42.20
2024-02-29T09:32:14.760Z,37.62
2024-02-29T09:33:14.803Z,37.83
2024-02-29T09:34:14.788Z,36.37
2024-02-29T09:35:14.778Z,36.16
2024-02-29T09:36:14.823Z,37.82
2024-02-29T09:37:14.819Z,36.35
2024-02-29T09:38:14.780Z,40.18
2024-02-29T09:39:14.786Z,39.16
2024-02-29T09:40:14.824Z,40.12
2024-02-29T09:42:15.561Z,37.51
2024-02-29T09:43:14.852Z,35.28
2024-02-29T09:44:14.773Z,34.84
2024-02-29T09:45:24.351Z,37.43
2024-02-29T09:46:22.754Z,37.40
2024-02-29T09:47:22.708Z,38.13
2024-02-29T09:48:22.753Z,36.46
2024-02-29T09:49:22.816Z,35.39
2024-02-29T09:50:22.850Z,27.56
2024-02-29T09:51:22.922Z,23.54
2024-02-29T09:52:22.978Z,24.13
2024-02-29T09:53:22.990Z,25.25
2024-02-29T09:54:23.073Z,23.64
2024-02-29T09:55:23.130Z,26.79
2024-02-29T09:56:23.146Z,24.99
2024-02-29T09:57:23.178Z,24.73
2024-02-29T09:58:23.249Z,24.93
2024-02-29T09:59:23.190Z,26.97
2024-02-29T10:00:23.232Z,26.62
2024-02-29T10:01:23.632Z,26.13
2024-02-29T10:02:23.301Z,26.84
2024-02-29T10:03:23.359Z,24.86
2024-02-29T10:04:23.467Z,24.62
2024-02-29T10:05:23.469Z,24.35
2024-02-29T10:06:23.468Z,24.80
2024-02-29T10:07:23.779Z,27.06
2024-02-29T10:08:23.511Z,25.81
2024-02-29T10:09:23.550Z,27.57
2024-02-29T10:10:23.856Z,28.91
2024-02-29T10:11:23.675Z,27.23
2024-02-29T10:12:23.657Z,26.23
2024-02-29T10:13:23.788Z,26.15
2024-02-29T10:14:23.796Z,25.82
2024-02-29T10:15:23.817Z,26.05
2024-02-29T10:16:24.989Z,27.29
2024-02-29T10:17:23.885Z,27.11
2024-02-29T10:18:23.875Z,28.29
2024-02-29T10:19:24.042Z,27.74
2024-02-29T10:20:23.904Z,28.62
2024-02-29T10:21:23.872Z,29.42
2024-02-29T10:23:23.879Z,29.56
2024-02-29T10:24:24.329Z,28.48
2024-02-29T10:25:23.915Z,28.08
2024-02-29T10:26:23.877Z,30.21
2024-02-29T10:27:23.881Z,28.83
2024-02-29T10:28:23.916Z,30.06
2024-02-29T10:29:25.085Z,29.59
2024-02-29T10:30:23.893Z,29.98
2024-02-29T10:31:23.980Z,30.43
2024-02-29T10:32:23.915Z,30.55
2024-02-29T10:33:23.917Z,29.87
2024-02-29T10:34:24.059Z,28.29
2024-02-29T10:35:23.929Z,30.12
2024-02-29T10:36:23.924Z,26.76
2024-02-29T10:37:23.928Z,28.01
2024-02-29T10:38:24.282Z,28.53
2024-02-29T10:39:23.901Z,29.82
2024-02-29T10:40:23.998Z,30.20
2024-02-29T10:41:23.910Z,30.52
2024-02-29T10:42:23.986Z,30.30
2024-02-29T10:43:23.970Z,30.10
2024-02-29T10:44:23.908Z,29.93
2024-02-29T10:45:26.706Z,29.24
2024-02-29T10:46:23.951Z,29.32
2024-02-29T10:47:23.949Z,31.24
2024-02-29T10:48:23.916Z,31.39
2024-02-29T10:49:23.943Z,32.98
2024-02-29T10:50:23.928Z,30.76
2024-02-29T10:51:27.168Z,29.89
2024-02-29T10:52:24.012Z,28.84
2024-02-29T10:53:23.917Z,28.49
2024-02-29T10:54:23.956Z,30.18
2024-02-29T10:55:24.060Z,28.51
2024-02-29T10:56:23.939Z,30.33
2024-02-29T10:57:23.912Z,29.94
2024-02-29T10:58:23.982Z,31.30
2024-02-29T10:59:23.942Z,30.82
2024-02-29T11:00:23.928Z,30.57
2024-02-29T11:01:24.128Z,28.66
2024-02-29T11:02:23.920Z,28.73
2024-02-29T11:03:23.941Z,29.97
2024-02-29T11:04:24.093Z,26.98
2024-02-29T11:05:23.964Z,27.87
2024-02-29T11:06:23.920Z,26.75
2024-02-29T11:07:24.009Z,27.27
2024-02-29T11:08:23.963Z,26.02
2024-02-29T11:09:27.304Z,24.16
2024-02-29T11:10:24.020Z,22.91
2024-02-29T11:11:24.004Z,23.43
2024-02-29T11:12:23.927Z,24.32
2024-02-29T11:13:23.973Z,25.96
2024-02-29T11:18:02.165Z,20.90
2024-02-29T11:19:03.577Z,20.11
2024-02-29T11:19:43.230Z,19.92
2024-02-29T11:20:38.252Z,22.62
2024-02-29T11:27:48.633Z,22.23
2024-02-29T11:28:21.600Z,20.62
2024-02-29T11:29:21.464Z,21.01
2024-02-29T11:30:21.437Z,21.84
2024-02-29T11:31:21.552Z,20.36
2024-02-29T11:32:21.467Z,20.27
2024-02-29T11:33:21.552Z,19.13
2024-02-29T11:34:21.512Z,19.05
2024-02-29T11:35:21.491Z,20.10
2024-02-29T11:36:21.533Z,19.81
2024-02-29T11:37:23.347Z,19.58
2024-02-29T11:38:28.761Z,20.64
2024-02-29T11:39:22.464Z,20.84
2024-02-29T11:40:21.717Z,20.51
2024-02-29T11:41:21.586Z,22.31
2024-02-29T11:42:21.484Z,22.54
2024-02-29T11:43:23.577Z,20.18
2024-02-29T11:44:21.497Z,20.26
2024-02-29T11:45:21.518Z,20.85
2024-02-29T11:46:21.587Z,21.72
2024-02-29T11:47:21.485Z,21.65
2024-02-29T11:48:21.472Z,22.12
2024-02-29T11:49:21.523Z,23.25
2024-02-29T11:57:29.376Z,19.71
2024-02-29T12:04:55.744Z,19.57
2024-02-29T12:11:36.212Z,20.17
2024-02-29T12:12:12.117Z,20.14
2024-02-29T12:13:13.163Z,19.21
2024-02-29T12:14:12.284Z,18.46
2024-02-29T12:15:12.215Z,20.05
2024-02-29T12:25:24.360Z,16.88
2024-02-29T12:30:57.795Z,16.66
2024-02-29T12:31:33.416Z,17.60
2024-02-29T12:36:09.048Z,18.20
2024-02-29T12:36:46.473Z,19.41
2024-02-29T12:37:46.505Z,17.91
2024-02-29T12:38:46.469Z,17.14
2024-02-29T12:39:47.274Z,16.97
2024-02-29T12:40:46.591Z,17.55
2024-02-29T12:41:46.501Z,17.96
2024-02-29T12:42:46.512Z,18.15
2024-02-29T12:43:46.472Z,16.03
2024-02-29T12:44:46.511Z,16.23
2024-02-29T12:45:46.521Z,16.61
2024-02-29T12:46:46.512Z,16.62
2024-02-29T12:47:46.616Z,16.79
2024-02-29T12:48:46.521Z,17.05
2024-02-29T12:49:46.573Z,17.11
2024-02-29T12:50:46.480Z,16.58
2024-02-29T12:51:46.537Z,17.22
2024-02-29T12:52:46.488Z,16.88
2024-02-29T12:53:46.502Z,17.20
2024-02-29T12:54:46.532Z,16.52
2024-02-29T12:55:46.505Z,16.77
2024-02-29T12:56:46.577Z,15.81
2024-02-29T12:57:46.574Z,16.77
2024-02-29T12:58:46.492Z,16.49
2024-02-29T12:59:46.496Z,16.54
2024-02-29T13:00:46.563Z,16.12
2024-02-29T13:01:46.606Z,16.53
2024-02-29T13:02:46.568Z,17.21
2024-02-29T13:03:46.661Z,17.72
2024-02-29T13:04:46.732Z,16.30
2024-02-29T13:05:46.721Z,18.13
2024-02-29T13:06:46.798Z,17.51
2024-02-29T13:07:46.847Z,15.92
2024-02-29T13:08:47.512Z,17.18
2024-02-29T13:09:46.906Z,16.23
2024-02-29T13:10:46.921Z,17.38
2024-02-29T13:11:47.031Z,15.28
2024-02-29T13:12:51.899Z,17.27
2024-02-29T13:13:48.053Z,16.30
2024-02-29T13:14:47.036Z,15.46
2024-02-29T13:15:47.107Z,15.02
2024-02-29T13:16:47.020Z,15.04
2024-02-29T13:17:47.054Z,14.76
2024-02-29T13:18:47.033Z,14.32
2024-02-29T13:19:47.028Z,14.07
2024-02-29T13:20:47.021Z,13.65
2024-02-29T13:21:47.048Z,14.49
2024-02-29T13:22:47.026Z,13.39
2024-02-29T13:23:47.022Z,14.58
2024-02-29T13:24:47.152Z,14.06
2024-02-29T13:25:47.174Z,15.06
2024-02-29T13:26:47.123Z,14.78
2024-02-29T13:27:47.176Z,14.74
2024-02-29T13:28:47.291Z,14.12
2024-02-29T13:29:47.261Z,12.42
2024-02-29T13:30:47.333Z,14.57
2024-02-29T13:31:47.385Z,14.73
2024-02-29T13:32:47.397Z,13.53
2024-02-29T13:33:47.450Z,14.19
2024-02-29T13:34:47.480Z,13.80
2024-02-29T13:35:47.541Z,14.75
2024-02-29T13:36:47.611Z,14.38
2024-02-29T13:37:47.667Z,13.37
2024-02-29T13:38:47.691Z,13.11
2024-02-29T13:39:47.780Z,14.16
2024-02-29T13:40:47.755Z,12.07
2024-02-29T13:41:47.792Z,11.37
2024-02-29T13:42:47.858Z,11.53
2024-02-29T13:43:47.855Z,11.84
2024-02-29T13:44:48.014Z,12.37
2024-02-29T13:45:48.032Z,12.49
2024-02-29T13:46:48.041Z,11.83
2024-02-29T13:47:48.043Z,11.20
2024-02-29T13:48:48.101Z,12.05
2024-02-29T13:49:48.108Z,11.42
2024-02-29T13:50:48.119Z,10.18
2024-02-29T13:51:48.214Z,10.40
2024-02-29T13:52:48.198Z,10.23
2024-02-29T13:53:48.288Z,11.42
2024-02-29T13:54:48.456Z,10.90
2024-02-29T13:55:48.715Z,10.34
2024-02-29T13:56:48.476Z,10.52
2024-02-29T13:57:48.460Z,10.76
2024-02-29T13:58:48.468Z,9.75
2024-02-29T13:59:48.469Z,9.53
2024-02-29T14:00:48.685Z,9.16
2024-02-29T14:01:48.728Z,9.57
2024-02-29T14:02:48.604Z,10.84
2024-02-29T14:03:48.700Z,10.94
2024-02-29T14:04:48.768Z,10.95
2024-02-29T14:05:53.810Z,10.16
2024-02-29T14:06:48.998Z,8.98
2024-02-29T14:07:49.418Z,10.18
2024-02-29T14:08:48.823Z,9.92
2024-02-29T14:09:48.970Z,9.88
2024-02-29T14:10:48.907Z,9.50
2024-02-29T14:11:48.936Z,9.57
2024-02-29T14:12:49.188Z,10.43
2024-02-29T14:13:49.048Z,10.24
2024-02-29T14:14:49.117Z,9.57
2024-02-29T14:15:49.212Z,10.41
2024-02-29T14:16:49.346Z,10.17
2024-02-29T14:17:56.619Z,11.18
2024-02-29T14:18:58.215Z,10.31
2024-02-29T14:19:56.573Z,11.43
2024-02-29T14:20:56.581Z,10.43
2024-02-29T14:21:56.584Z,10.64
2024-02-29T14:22:56.589Z,10.92
2024-02-29T14:23:56.581Z,11.01
2024-02-29T14:24:56.615Z,10.57
2024-02-29T14:25:56.584Z,10.58
2024-02-29T14:26:56.598Z,11.61
2024-02-29T14:27:56.600Z,10.60
2024-02-29T14:28:56.599Z,9.16
2024-02-29T14:29:56.588Z,11.07
2024-02-29T14:30:56.633Z,11.52
2024-02-29T14:31:56.637Z,10.52
2024-02-29T14:32:56.620Z,9.52
2024-02-29T14:33:56.613Z,10.69
2024-02-29T14:34:56.797Z,9.92
2024-02-29T14:35:56.691Z,10.61
2024-02-29T14:36:56.747Z,9.57
2024-02-29T14:37:56.681Z,9.66
2024-02-29T14:38:56.633Z,11.11
2024-02-29T14:39:56.735Z,10.90
2024-02-29T14:40:56.667Z,12.51
2024-02-29T14:41:56.724Z,13.17
2024-02-29T14:42:56.803Z,10.40
2024-02-29T14:43:56.856Z,11.33
2024-02-29T14:44:56.872Z,10.64
2024-02-29T14:45:56.926Z,10.75
2024-02-29T14:46:56.952Z,11.46
2024-02-29T14:47:57.098Z,10.19
2024-02-29T14:48:57.042Z,10.81
2024-02-29T14:49:57.072Z,10.39
2024-02-29T14:50:57.225Z,9.83
2024-02-29T14:51:57.235Z,11.26
2024-02-29T14:52:57.203Z,9.38
2024-02-29T14:53:57.271Z,7.33
2024-02-29T14:54:57.389Z,8.31
2024-02-29T14:55:57.381Z,12.01
2024-02-29T14:56:57.400Z,9.44
2024-02-29T14:57:57.446Z,8.98
2024-02-29T14:58:57.473Z,10.02
2024-02-29T14:59:57.496Z,8.79
2024-02-29T15:00:57.673Z,8.65
2024-02-29T15:01:58.764Z,8.78
2024-02-29T15:02:57.589Z,11.18
2024-02-29T15:03:57.732Z,13.86
2024-02-29T15:04:57.666Z,10.59
2024-02-29T15:05:57.654Z,14.93
2024-02-29T15:06:58.705Z,15.97
2024-02-29T15:07:57.725Z,15.56
2024-02-29T15:08:57.741Z,13.70
2024-02-29T15:09:57.812Z,13.41
2024-02-29T15:10:57.835Z,12.63
2024-02-29T15:11:57.858Z,12.09
2024-02-29T15:12:58.101Z,11.75
2024-02-29T15:13:57.976Z,11.99
2024-02-29T15:14:57.978Z,10.13
2024-02-29T15:15:58.042Z,10.51
2024-02-29T15:16:58.050Z,10.77
2024-02-29T15:17:58.130Z,11.23
2024-02-29T15:18:58.245Z,12.50
2024-02-29T15:19:58.192Z,13.10
2024-02-29T15:20:58.263Z,11.31
2024-02-29T15:21:58.341Z,13.59
2024-02-29T15:22:58.332Z,13.29
2024-02-29T15:23:58.464Z,11.76
2024-02-29T15:24:58.587Z,13.27
2024-02-29T15:25:58.585Z,16.54
2024-02-29T15:26:58.525Z,17.79
2024-02-29T15:27:58.585Z,16.94
2024-02-29T15:28:58.657Z,19.22
2024-02-29T15:29:58.665Z,18.22
2024-02-29T15:30:58.727Z,17.45
2024-02-29T15:31:58.757Z,17.43
2024-02-29T15:32:58.824Z,18.56
2024-02-29T15:33:58.923Z,17.53
2024-02-29T15:34:58.855Z,17.67
2024-02-29T15:35:58.927Z,19.69
2024-02-29T15:36:58.954Z,19.48
2024-02-29T15:37:58.960Z,20.57
2024-02-29T15:38:58.987Z,19.18
2024-02-29T15:39:59.089Z,18.79
2024-02-29T15:40:59.082Z,19.87
2024-02-29T15:41:59.106Z,19.47
2024-02-29T15:42:59.155Z,19.48
2024-02-29T15:43:59.173Z,20.76
2024-02-29T15:44:59.235Z,21.00
2024-02-29T15:45:59.451Z,20.16
2024-02-29T15:46:59.327Z,21.96
2024-02-29T15:47:59.420Z,20.67
2024-02-29T15:48:59.425Z,20.25
2024-02-29T15:49:59.441Z,19.65
2024-02-29T15:50:59.485Z,19.17
2024-02-29T15:51:59.648Z,19.91
2024-02-29T15:52:59.555Z,20.37
2024-02-29T15:53:59.572Z,19.04
2024-02-29T15:54:59.652Z,19.66
2024-02-29T15:56:02.512Z,20.70
2024-02-29T15:56:59.647Z,20.58
2024-02-29T15:57:59.808Z,19.26
2024-02-29T15:58:59.644Z,20.02
2024-02-29T15:59:59.653Z,19.66
2024-02-29T16:00:59.674Z,21.44
2024-02-29T16:01:59.673Z,20.68
2024-02-29T16:02:59.651Z,19.91
2024-02-29T16:03:59.687Z,21.42
2024-02-29T16:04:59.704Z,21.38
2024-02-29T16:05:59.671Z,19.97
2024-02-29T16:06:59.832Z,21.70
2024-02-29T16:07:59.746Z,21.10
2024-02-29T16:08:59.655Z,22.03
2024-02-29T16:09:59.795Z,22.51
2024-02-29T16:10:59.648Z,21.39
2024-02-29T16:11:59.729Z,20.15
2024-02-29T16:12:59.703Z,22.16
2024-02-29T16:13:59.663Z,22.66
2024-02-29T16:14:59.655Z,21.61
2024-02-29T16:15:59.693Z,19.56
2024-02-29T16:16:59.784Z,21.37
2024-02-29T16:17:59.700Z,20.56
2024-02-29T16:18:59.698Z,20.74
2024-02-29T16:19:59.666Z,20.92
2024-02-29T16:20:59.787Z,22.64
2024-02-29T16:21:59.705Z,22.35
2024-02-29T16:22:59.742Z,21.67
2024-02-29T16:23:59.764Z,19.49
2024-02-29T16:24:59.738Z,17.87
2024-02-29T16:25:59.697Z,18.47
2024-02-29T16:26:59.687Z,20.07
2024-02-29T16:27:59.713Z,19.36
2024-02-29T16:28:59.668Z,18.48
2024-02-29T16:29:59.669Z,17.94
2024-02-29T16:31:00.755Z,19.52
2024-02-29T16:31:59.660Z,20.35
2024-02-29T16:32:59.725Z,18.94
2024-02-29T16:33:59.735Z,19.45
2024-02-29T16:34:59.737Z,18.26
2024-02-29T16:35:59.797Z,21.44
2024-02-29T16:36:59.862Z,15.17
2024-02-29T16:37:59.942Z,16.83
2024-02-29T16:38:59.928Z,16.74
2024-02-29T16:40:00.143Z,17.28
2024-02-29T16:41:00.008Z,14.77
2024-02-29T16:42:00.016Z,16.27
2024-02-29T16:43:00.034Z,20.39
2024-02-29T16:44:00.102Z,21.62
2024-02-29T16:45:00.107Z,19.40
2024-02-29T16:46:00.228Z,18.05
2024-02-29T16:47:00.135Z,20.90
2024-02-29T16:48:00.235Z,20.69
2024-02-29T16:49:00.232Z,18.74
2024-02-29T16:50:00.224Z,17.42
2024-02-29T16:51:00.293Z,17.89
2024-02-29T16:52:00.355Z,21.90
2024-02-29T16:53:00.380Z,20.36
2024-02-29T16:54:00.421Z,23.86
2024-02-29T16:55:00.492Z,18.77
2024-02-29T16:56:00.630Z,14.81
2024-02-29T16:57:00.530Z,13.51
2024-02-29T16:58:00.661Z,17.76
2024-02-29T16:59:00.611Z,17.71
2024-02-29T17:00:00.700Z,17.50
2024-02-29T17:01:00.859Z,17.45
2024-02-29T17:02:00.984Z,15.90
2024-02-29T17:03:00.758Z,15.76
2024-02-29T17:04:00.857Z,15.53
2024-02-29T17:05:00.832Z,15.82
2024-02-29T17:06:00.941Z,15.34
2024-02-29T17:07:01.009Z,13.49
2024-02-29T17:08:00.973Z,15.23